sensor_id;sensor_type;location;lat;lon;timestamp;P1;durP1;ratioP1;P2;durP2;ratioP2
2956;SDS011;1488;51.548;7.222;2023-05-24T00:00:54;1.97;;;1.17;;
2956;SDS011;1488;51.548;7.222;2023-05-24T00:03:21;1.83;;;1.03;;
2956;SDS011;1488;51.548;7.222;2023-05-24T00:05:49;1.20;;;0.97;;
2956;SDS011;1488;51.548;7.222;2023-05-24T00:08:16;1.10;;;0.80;;
2956;SDS011;1488;51.548;7.222;2023-05-24T00:10:43;1.20;;;0.90;;
2956;SDS011;1488;51.548;7.222;2023-05-24T00:13:10;1.53;;;0.80;;
2956;SDS011;1488;51.548;7.222;2023-05-24T00:15:37;1.20;;;1.03;;
2956;SDS011;1488;51.548;7.222;2023-05-24T00:18:04;1.20;;;1.07;;
2956;SDS011;1488;51.548;7.222;2023-05-24T00:20:31;1.40;;;1.03;;
2956;SDS011;1488;51.548;7.222;2023-05-24T00:22:59;1.27;;;1.07;;
2956;SDS011;1488;51.548;7.222;2023-05-24T00:25:25;1.43;;;0.90;;
2956;SDS011;1488;51.548;7.222;2023-05-24T00:27:52;1.77;;;1.00;;
2956;SDS011;1488;51.548;7.222;2023-05-24T00:30:19;1.67;;;1.10;;
2956;SDS011;1488;51.548;7.222;2023-05-24T00:32:46;1.50;;;1.03;;
2956;SDS011;1488;51.548;7.222;2023-05-24T00:35:12;1.20;;;0.90;;
2956;SDS011;1488;51.548;7.222;2023-05-24T00:37:39;1.10;;;0.80;;
2956;SDS011;1488;51.548;7.222;2023-05-24T00:40:10;1.23;;;1.10;;
2956;SDS011;1488;51.548;7.222;2023-05-24T00:42:38;1.30;;;1.00;;
2956;SDS011;1488;51.548;7.222;2023-05-24T00:45:05;1.10;;;0.80;;
2956;SDS011;1488;51.548;7.222;2023-05-24T00:47:33;1.30;;;1.00;;
2956;SDS011;1488;51.548;7.222;2023-05-24T00:50:00;1.33;;;1.00;;
2956;SDS011;1488;51.548;7.222;2023-05-24T00:52:27;1.40;;;1.10;;
2956;SDS011;1488;51.548;7.222;2023-05-24T00:54:54;1.97;;;1.00;;
2956;SDS011;1488;51.548;7.222;2023-05-24T00:57:23;1.37;;;0.90;;
2956;SDS011;1488;51.548;7.222;2023-05-24T00:59:50;1.10;;;0.90;;
2956;SDS011;1488;51.548;7.222;2023-05-24T01:02:17;1.47;;;0.90;;
2956;SDS011;1488;51.548;7.222;2023-05-24T01:04:44;1.07;;;0.73;;
2956;SDS011;1488;51.548;7.222;2023-05-24T01:07:15;2.03;;;1.23;;
2956;SDS011;1488;51.548;7.222;2023-05-24T01:09:54;1.67;;;1.20;;
2956;SDS011;1488;51.548;7.222;2023-05-24T01:12:31;2.47;;;0.90;;
2956;SDS011;1488;51.548;7.222;2023-05-24T01:15:13;1.10;;;0.93;;
2956;SDS011;1488;51.548;7.222;2023-05-24T01:17:49;1.97;;;1.20;;
2956;SDS011;1488;51.548;7.222;2023-05-24T01:20:25;2.03;;;1.00;;
2956;SDS011;1488;51.548;7.222;2023-05-24T01:23:05;1.10;;;0.90;;
2956;SDS011;1488;51.548;7.222;2023-05-24T01:25:44;1.10;;;0.90;;
2956;SDS011;1488;51.548;7.222;2023-05-24T01:28:19;1.10;;;0.83;;
2956;SDS011;1488;51.548;7.222;2023-05-24T01:30:47;1.60;;;1.03;;
2956;SDS011;1488;51.548;7.222;2023-05-24T01:33:14;1.90;;;1.00;;
2956;SDS011;1488;51.548;7.222;2023-05-24T01:35:41;1.30;;;1.00;;
2956;SDS011;1488;51.548;7.222;2023-05-24T01:38:08;1.23;;;0.90;;
2956;SDS011;1488;51.548;7.222;2023-05-24T01:40:36;1.40;;;1.00;;
2956;SDS011;1488;51.548;7.222;2023-05-24T01:43:06;2.03;;;1.00;;
2956;SDS011;1488;51.548;7.222;2023-05-24T01:45:43;1.20;;;1.00;;
2956;SDS011;1488;51.548;7.222;2023-05-24T01:48:20;1.50;;;1.07;;
2956;SDS011;1488;51.548;7.222;2023-05-24T01:50:57;1.37;;;0.97;;
2956;SDS011;1488;51.548;7.222;2023-05-24T01:53:24;1.20;;;0.90;;
2956;SDS011;1488;51.548;7.222;2023-05-24T01:55:56;1.50;;;0.90;;
2956;SDS011;1488;51.548;7.222;2023-05-24T01:58:25;1.83;;;0.90;;
2956;SDS011;1488;51.548;7.222;2023-05-24T02:00:56;1.30;;;0.90;;
2956;SDS011;1488;51.548;7.222;2023-05-24T02:03:23;1.00;;;0.90;;
2956;SDS011;1488;51.548;7.222;2023-05-24T02:05:50;1.30;;;0.90;;
2956;SDS011;1488;51.548;7.222;2023-05-24T02:08:17;1.30;;;1.00;;
2956;SDS011;1488;51.548;7.222;2023-05-24T02:10:45;1.13;;;0.90;;
2956;SDS011;1488;51.548;7.222;2023-05-24T02:13:12;1.00;;;0.70;;
2956;SDS011;1488;51.548;7.222;2023-05-24T02:15:40;1.20;;;1.00;;
2956;SDS011;1488;51.548;7.222;2023-05-24T02:18:08;1.47;;;0.90;;
2956;SDS011;1488;51.548;7.222;2023-05-24T02:20:35;1.10;;;1.00;;
2956;SDS011;1488;51.548;7.222;2023-05-24T02:23:02;1.10;;;0.87;;
2956;SDS011;1488;51.548;7.222;2023-05-24T02:25:29;1.20;;;1.10;;
2956;SDS011;1488;51.548;7.222;2023-05-24T02:27:56;1.30;;;1.00;;
2956;SDS011;1488;51.548;7.222;2023-05-24T02:30:23;1.23;;;1.03;;
2956;SDS011;1488;51.548;7.222;2023-05-24T02:32:50;1.20;;;0.83;;
2956;SDS011;1488;51.548;7.222;2023-05-24T02:35:18;1.10;;;0.80;;
2956;SDS011;1488;51.548;7.222;2023-05-24T02:37:45;1.30;;;0.90;;
2956;SDS011;1488;51.548;7.222;2023-05-24T02:40:12;1.10;;;0.80;;
2956;SDS011;1488;51.548;7.222;2023-05-24T02:42:39;1.40;;;1.03;;
2956;SDS011;1488;51.548;7.222;2023-05-24T02:45:06;1.10;;;0.87;;
2956;SDS011;1488;51.548;7.222;2023-05-24T02:47:33;1.47;;;1.00;;
2956;SDS011;1488;51.548;7.222;2023-05-24T02:50:00;1.10;;;0.80;;
2956;SDS011;1488;51.548;7.222;2023-05-24T02:52:28;1.20;;;0.80;;
2956;SDS011;1488;51.548;7.222;2023-05-24T02:54:55;1.10;;;0.80;;
2956;SDS011;1488;51.548;7.222;2023-05-24T02:57:22;1.20;;;0.90;;
2956;SDS011;1488;51.548;7.222;2023-05-24T02:59:49;1.50;;;1.10;;
2956;SDS011;1488;51.548;7.222;2023-05-24T03:02:16;1.00;;;0.70;;
2956;SDS011;1488;51.548;7.222;2023-05-24T03:04:43;1.10;;;0.80;;
2956;SDS011;1488;51.548;7.222;2023-05-24T03:07:10;1.10;;;0.90;;
2956;SDS011;1488;51.548;7.222;2023-05-24T03:09:39;1.10;;;0.80;;
2956;SDS011;1488;51.548;7.222;2023-05-24T03:12:05;1.00;;;0.70;;
2956;SDS011;1488;51.548;7.222;2023-05-24T03:14:32;1.23;;;0.90;;
2956;SDS011;1488;51.548;7.222;2023-05-24T03:16:59;1.10;;;0.90;;
2956;SDS011;1488;51.548;7.222;2023-05-24T03:19:26;1.20;;;0.90;;
2956;SDS011;1488;51.548;7.222;2023-05-24T03:21:53;1.17;;;0.90;;
2956;SDS011;1488;51.548;7.222;2023-05-24T03:24:20;1.10;;;0.80;;
2956;SDS011;1488;51.548;7.222;2023-05-24T03:26:48;1.50;;;0.80;;
2956;SDS011;1488;51.548;7.222;2023-05-24T03:29:15;1.47;;;1.23;;
2956;SDS011;1488;51.548;7.222;2023-05-24T03:31:41;1.20;;;0.90;;
2956;SDS011;1488;51.548;7.222;2023-05-24T03:34:08;1.60;;;1.00;;
2956;SDS011;1488;51.548;7.222;2023-05-24T03:36:35;1.10;;;0.80;;
2956;SDS011;1488;51.548;7.222;2023-05-24T03:39:02;1.30;;;0.87;;
2956;SDS011;1488;51.548;7.222;2023-05-24T03:41:29;1.27;;;0.83;;
2956;SDS011;1488;51.548;7.222;2023-05-24T03:43:58;1.10;;;0.77;;
2956;SDS011;1488;51.548;7.222;2023-05-24T03:46:26;1.00;;;0.70;;
2956;SDS011;1488;51.548;7.222;2023-05-24T03:48:53;1.63;;;0.80;;
2956;SDS011;1488;51.548;7.222;2023-05-24T03:51:20;1.20;;;1.00;;
2956;SDS011;1488;51.548;7.222;2023-05-24T03:53:48;1.70;;;1.00;;
2956;SDS011;1488;51.548;7.222;2023-05-24T03:56:15;1.10;;;0.80;;
2956;SDS011;1488;51.548;7.222;2023-05-24T03:58:41;1.20;;;0.90;;
2956;SDS011;1488;51.548;7.222;2023-05-24T04:01:09;1.50;;;1.00;;
2956;SDS011;1488;51.548;7.222;2023-05-24T04:03:37;1.13;;;0.80;;
2956;SDS011;1488;51.548;7.222;2023-05-24T04:06:04;1.57;;;0.90;;
2956;SDS011;1488;51.548;7.222;2023-05-24T04:08:31;1.20;;;1.00;;
2956;SDS011;1488;51.548;7.222;2023-05-24T04:10:58;1.20;;;1.00;;
2956;SDS011;1488;51.548;7.222;2023-05-24T04:13:25;1.10;;;0.90;;
2956;SDS011;1488;51.548;7.222;2023-05-24T04:15:52;1.30;;;1.07;;
2956;SDS011;1488;51.548;7.222;2023-05-24T04:18:20;1.40;;;0.90;;
2956;SDS011;1488;51.548;7.222;2023-05-24T04:20:46;1.10;;;0.80;;
2956;SDS011;1488;51.548;7.222;2023-05-24T04:23:13;1.20;;;0.90;;
2956;SDS011;1488;51.548;7.222;2023-05-24T04:25:41;1.37;;;0.90;;
2956;SDS011;1488;51.548;7.222;2023-05-24T04:28:07;1.83;;;1.07;;
2956;SDS011;1488;51.548;7.222;2023-05-24T04:30:34;1.30;;;0.93;;
2956;SDS011;1488;51.548;7.222;2023-05-24T04:33:01;1.30;;;0.90;;
2956;SDS011;1488;51.548;7.222;2023-05-24T04:35:30;1.40;;;0.97;;
2956;SDS011;1488;51.548;7.222;2023-05-24T04:37:57;1.77;;;0.80;;
2956;SDS011;1488;51.548;7.222;2023-05-24T04:40:24;4.00;;;1.10;;
2956;SDS011;1488;51.548;7.222;2023-05-24T04:42:51;1.30;;;0.90;;
2956;SDS011;1488;51.548;7.222;2023-05-24T04:45:18;1.20;;;0.80;;
2956;SDS011;1488;51.548;7.222;2023-05-24T04:47:45;1.00;;;0.83;;
2956;SDS011;1488;51.548;7.222;2023-05-24T04:50:11;1.17;;;0.90;;
2956;SDS011;1488;51.548;7.222;2023-05-24T04:52:39;1.10;;;0.80;;
2956;SDS011;1488;51.548;7.222;2023-05-24T04:55:06;1.20;;;1.07;;
2956;SDS011;1488;51.548;7.222;2023-05-24T04:57:34;3.57;;;0.87;;
2956;SDS011;1488;51.548;7.222;2023-05-24T05:00:01;1.13;;;1.00;;
2956;SDS011;1488;51.548;7.222;2023-05-24T05:02:28;1.50;;;1.00;;
2956;SDS011;1488;51.548;7.222;2023-05-24T05:04:55;1.20;;;0.90;;
2956;SDS011;1488;51.548;7.222;2023-05-24T05:07:22;3.10;;;1.20;;
2956;SDS011;1488;51.548;7.222;2023-05-24T05:09:50;1.20;;;0.90;;
2956;SDS011;1488;51.548;7.222;2023-05-24T05:12:17;1.40;;;1.10;;
2956;SDS011;1488;51.548;7.222;2023-05-24T05:14:44;1.10;;;0.80;;
2956;SDS011;1488;51.548;7.222;2023-05-24T05:17:11;1.17;;;0.90;;
2956;SDS011;1488;51.548;7.222;2023-05-24T05:19:38;1.10;;;1.00;;
2956;SDS011;1488;51.548;7.222;2023-05-24T05:22:05;1.70;;;1.03;;
2956;SDS011;1488;51.548;7.222;2023-05-24T05:24:31;1.00;;;0.70;;
2956;SDS011;1488;51.548;7.222;2023-05-24T05:27:00;1.20;;;0.87;;
2956;SDS011;1488;51.548;7.222;2023-05-24T05:29:26;1.10;;;0.93;;
2956;SDS011;1488;51.548;7.222;2023-05-24T05:31:53;1.10;;;0.90;;
2956;SDS011;1488;51.548;7.222;2023-05-24T05:34:20;1.30;;;0.93;;
2956;SDS011;1488;51.548;7.222;2023-05-24T05:36:47;1.10;;;0.93;;
2956;SDS011;1488;51.548;7.222;2023-05-24T05:39:14;1.10;;;0.90;;
2956;SDS011;1488;51.548;7.222;2023-05-24T05:41:41;1.20;;;0.90;;
2956;SDS011;1488;51.548;7.222;2023-05-24T05:46:45;1.10;;;0.80;;
2956;SDS011;1488;51.548;7.222;2023-05-24T05:49:12;1.70;;;1.07;;
2956;SDS011;1488;51.548;7.222;2023-05-24T05:51:39;1.37;;;0.90;;
2956;SDS011;1488;51.548;7.222;2023-05-24T05:54:06;1.10;;;0.80;;
2956;SDS011;1488;51.548;7.222;2023-05-24T05:56:38;1.30;;;0.80;;
2956;SDS011;1488;51.548;7.222;2023-05-24T05:59:09;2.07;;;1.00;;
2956;SDS011;1488;51.548;7.222;2023-05-24T06:01:37;1.90;;;0.87;;
2956;SDS011;1488;51.548;7.222;2023-05-24T06:04:04;1.30;;;1.00;;
2956;SDS011;1488;51.548;7.222;2023-05-24T06:06:31;1.20;;;0.90;;
2956;SDS011;1488;51.548;7.222;2023-05-24T06:08:57;2.20;;;0.90;;
2956;SDS011;1488;51.548;7.222;2023-05-24T06:11:24;1.10;;;0.70;;
2956;SDS011;1488;51.548;7.222;2023-05-24T06:13:52;1.17;;;0.80;;
2956;SDS011;1488;51.548;7.222;2023-05-24T06:16:19;1.20;;;0.90;;
2956;SDS011;1488;51.548;7.222;2023-05-24T06:18:47;1.93;;;0.87;;
2956;SDS011;1488;51.548;7.222;2023-05-24T06:21:14;1.93;;;0.93;;
2956;SDS011;1488;51.548;7.222;2023-05-24T06:23:41;1.43;;;1.03;;
2956;SDS011;1488;51.548;7.222;2023-05-24T06:26:08;1.20;;;1.10;;
2956;SDS011;1488;51.548;7.222;2023-05-24T06:28:35;1.97;;;1.50;;
2956;SDS011;1488;51.548;7.222;2023-05-24T06:31:02;1.40;;;1.10;;
2956;SDS011;1488;51.548;7.222;2023-05-24T06:33:29;4.00;;;1.00;;
2956;SDS011;1488;51.548;7.222;2023-05-24T06:35:58;1.30;;;1.10;;
2956;SDS011;1488;51.548;7.222;2023-05-24T06:38:25;1.17;;;0.90;;
2956;SDS011;1488;51.548;7.222;2023-05-24T06:40:52;1.50;;;1.00;;
2956;SDS011;1488;51.548;7.222;2023-05-24T06:43:19;1.20;;;0.90;;
2956;SDS011;1488;51.548;7.222;2023-05-24T06:45:45;1.30;;;1.00;;
2956;SDS011;1488;51.548;7.222;2023-05-24T06:48:12;1.87;;;1.20;;
2956;SDS011;1488;51.548;7.222;2023-05-24T06:50:39;1.53;;;1.30;;
2956;SDS011;1488;51.548;7.222;2023-05-24T06:53:07;1.10;;;0.90;;
2956;SDS011;1488;51.548;7.222;2023-05-24T06:55:34;1.50;;;0.83;;
2956;SDS011;1488;51.548;7.222;2023-05-24T06:58:01;1.87;;;1.10;;
2956;SDS011;1488;51.548;7.222;2023-05-24T07:00:29;1.10;;;0.90;;
2956;SDS011;1488;51.548;7.222;2023-05-24T07:02:56;1.40;;;0.87;;
2956;SDS011;1488;51.548;7.222;2023-05-24T07:05:23;1.10;;;1.00;;
2956;SDS011;1488;51.548;7.222;2023-05-24T07:07:50;1.17;;;0.93;;
2956;SDS011;1488;51.548;7.222;2023-05-24T07:10:18;1.20;;;0.90;;
2956;SDS011;1488;51.548;7.222;2023-05-24T07:12:45;1.13;;;1.00;;
2956;SDS011;1488;51.548;7.222;2023-05-24T07:15:12;2.30;;;0.90;;
2956;SDS011;1488;51.548;7.222;2023-05-24T07:17:38;4.60;;;0.90;;
2956;SDS011;1488;51.548;7.222;2023-05-24T07:20:05;1.10;;;0.93;;
2956;SDS011;1488;51.548;7.222;2023-05-24T07:22:35;1.47;;;0.90;;
2956;SDS011;1488;51.548;7.222;2023-05-24T07:25:02;1.20;;;0.90;;
2956;SDS011;1488;51.548;7.222;2023-05-24T07:27:30;1.60;;;0.90;;
2956;SDS011;1488;51.548;7.222;2023-05-24T07:29:57;1.20;;;1.00;;
2956;SDS011;1488;51.548;7.222;2023-05-24T07:32:24;1.50;;;0.90;;
2956;SDS011;1488;51.548;7.222;2023-05-24T07:34:51;6.23;;;1.20;;
2956;SDS011;1488;51.548;7.222;2023-05-24T07:37:17;2.53;;;0.90;;
2956;SDS011;1488;51.548;7.222;2023-05-24T07:39:48;1.20;;;0.90;;
2956;SDS011;1488;51.548;7.222;2023-05-24T07:42:14;1.77;;;1.20;;
2956;SDS011;1488;51.548;7.222;2023-05-24T07:44:42;1.67;;;1.03;;
2956;SDS011;1488;51.548;7.222;2023-05-24T07:47:09;2.30;;;1.07;;
2956;SDS011;1488;51.548;7.222;2023-05-24T07:49:36;1.10;;;0.90;;
2956;SDS011;1488;51.548;7.222;2023-05-24T07:52:03;1.30;;;1.20;;
2956;SDS011;1488;51.548;7.222;2023-05-24T07:54:30;1.10;;;0.80;;
2956;SDS011;1488;51.548;7.222;2023-05-24T07:56:57;1.10;;;0.90;;
2956;SDS011;1488;51.548;7.222;2023-05-24T07:59:23;1.60;;;1.20;;
2956;SDS011;1488;51.548;7.222;2023-05-24T08:01:52;2.13;;;1.10;;
2956;SDS011;1488;51.548;7.222;2023-05-24T08:04:19;2.80;;;1.43;;
2956;SDS011;1488;51.548;7.222;2023-05-24T08:06:46;1.30;;;1.10;;
2956;SDS011;1488;51.548;7.222;2023-05-24T08:09:13;1.50;;;1.10;;
2956;SDS011;1488;51.548;7.222;2023-05-24T08:11:40;1.40;;;1.00;;
2956;SDS011;1488;51.548;7.222;2023-05-24T08:14:07;1.30;;;0.90;;
2956;SDS011;1488;51.548;7.222;2023-05-24T08:16:34;1.83;;;1.00;;
2956;SDS011;1488;51.548;7.222;2023-05-24T08:19:02;1.30;;;1.13;;
2956;SDS011;1488;51.548;7.222;2023-05-24T08:21:29;2.90;;;1.10;;
2956;SDS011;1488;51.548;7.222;2023-05-24T08:23:55;1.37;;;1.00;;
2956;SDS011;1488;51.548;7.222;2023-05-24T08:26:24;2.07;;;1.10;;
2956;SDS011;1488;51.548;7.222;2023-05-24T08:28:50;1.40;;;1.10;;
2956;SDS011;1488;51.548;7.222;2023-05-24T08:31:17;1.30;;;0.93;;
2956;SDS011;1488;51.548;7.222;2023-05-24T08:33:44;1.40;;;1.10;;
2956;SDS011;1488;51.548;7.222;2023-05-24T08:36:15;1.33;;;1.03;;
2956;SDS011;1488;51.548;7.222;2023-05-24T08:38:42;2.10;;;1.60;;
2956;SDS011;1488;51.548;7.222;2023-05-24T08:41:09;1.50;;;0.90;;
2956;SDS011;1488;51.548;7.222;2023-05-24T08:43:36;1.23;;;0.90;;
2956;SDS011;1488;51.548;7.222;2023-05-24T08:46:04;1.70;;;1.30;;
2956;SDS011;1488;51.548;7.222;2023-05-24T08:48:32;1.53;;;1.10;;
2956;SDS011;1488;51.548;7.222;2023-05-24T08:51:06;1.20;;;1.00;;
2956;SDS011;1488;51.548;7.222;2023-05-24T08:53:35;1.20;;;0.90;;
2956;SDS011;1488;51.548;7.222;2023-05-24T08:56:04;1.37;;;1.20;;
2956;SDS011;1488;51.548;7.222;2023-05-24T08:58:32;3.10;;;1.23;;
2956;SDS011;1488;51.548;7.222;2023-05-24T09:00:59;1.30;;;1.00;;
2956;SDS011;1488;51.548;7.222;2023-05-24T09:03:27;1.80;;;1.13;;
2956;SDS011;1488;51.548;7.222;2023-05-24T09:05:55;3.10;;;1.10;;
2956;SDS011;1488;51.548;7.222;2023-05-24T09:08:22;1.30;;;1.00;;
2956;SDS011;1488;51.548;7.222;2023-05-24T09:10:50;1.30;;;1.07;;
2956;SDS011;1488;51.548;7.222;2023-05-24T09:13:17;1.20;;;1.00;;
2956;SDS011;1488;51.548;7.222;2023-05-24T09:15:44;1.50;;;1.00;;
2956;SDS011;1488;51.548;7.222;2023-05-24T09:18:11;1.40;;;1.10;;
2956;SDS011;1488;51.548;7.222;2023-05-24T09:20:38;1.37;;;1.00;;
2956;SDS011;1488;51.548;7.222;2023-05-24T09:23:05;1.27;;;1.10;;
2956;SDS011;1488;51.548;7.222;2023-05-24T09:25:32;1.07;;;0.80;;
2956;SDS011;1488;51.548;7.222;2023-05-24T09:28:04;2.87;;;1.60;;
2956;SDS011;1488;51.548;7.222;2023-05-24T09:30:32;2.07;;;1.17;;
2956;SDS011;1488;51.548;7.222;2023-05-24T09:32:59;1.30;;;1.00;;
2956;SDS011;1488;51.548;7.222;2023-05-24T09:35:28;1.83;;;1.10;;
2956;SDS011;1488;51.548;7.222;2023-05-24T09:37:55;1.50;;;1.00;;
2956;SDS011;1488;51.548;7.222;2023-05-24T09:40:23;1.20;;;1.00;;
2956;SDS011;1488;51.548;7.222;2023-05-24T09:43:02;1.80;;;1.10;;
2956;SDS011;1488;51.548;7.222;2023-05-24T09:45:31;1.60;;;1.23;;
2956;SDS011;1488;51.548;7.222;2023-05-24T09:47:58;1.20;;;1.07;;
2956;SDS011;1488;51.548;7.222;2023-05-24T09:50:25;1.20;;;1.00;;
2956;SDS011;1488;51.548;7.222;2023-05-24T09:52:53;1.67;;;1.20;;
2956;SDS011;1488;51.548;7.222;2023-05-24T09:55:20;1.63;;;1.40;;
2956;SDS011;1488;51.548;7.222;2023-05-24T09:57:48;1.73;;;1.20;;
2956;SDS011;1488;51.548;7.222;2023-05-24T10:00:21;1.77;;;1.30;;
2956;SDS011;1488;51.548;7.222;2023-05-24T10:02:58;1.20;;;0.90;;
2956;SDS011;1488;51.548;7.222;2023-05-24T10:05:26;1.30;;;1.00;;
2956;SDS011;1488;51.548;7.222;2023-05-24T10:07:54;1.90;;;1.20;;
2956;SDS011;1488;51.548;7.222;2023-05-24T10:10:21;1.10;;;0.90;;
2956;SDS011;1488;51.548;7.222;2023-05-24T10:12:48;1.50;;;1.00;;
2956;SDS011;1488;51.548;7.222;2023-05-24T10:15:16;1.50;;;1.00;;
2956;SDS011;1488;51.548;7.222;2023-05-24T10:17:45;2.43;;;1.40;;
2956;SDS011;1488;51.548;7.222;2023-05-24T10:20:11;2.10;;;1.17;;
2956;SDS011;1488;51.548;7.222;2023-05-24T10:22:40;1.40;;;1.23;;
2956;SDS011;1488;51.548;7.222;2023-05-24T10:25:11;1.80;;;1.40;;
2956;SDS011;1488;51.548;7.222;2023-05-24T10:27:42;2.10;;;1.30;;
2956;SDS011;1488;51.548;7.222;2023-05-24T10:30:10;1.70;;;1.00;;
2956;SDS011;1488;51.548;7.222;2023-05-24T10:32:42;1.90;;;1.13;;
2956;SDS011;1488;51.548;7.222;2023-05-24T10:35:12;1.43;;;1.00;;
2956;SDS011;1488;51.548;7.222;2023-05-24T10:37:42;1.30;;;1.10;;
2956;SDS011;1488;51.548;7.222;2023-05-24T10:40:17;1.93;;;1.10;;
2956;SDS011;1488;51.548;7.222;2023-05-24T10:42:45;1.83;;;1.40;;
2956;SDS011;1488;51.548;7.222;2023-05-24T10:45:24;2.03;;;1.17;;
2956;SDS011;1488;51.548;7.222;2023-05-24T10:48:00;1.73;;;1.27;;
2956;SDS011;1488;51.548;7.222;2023-05-24T10:50:33;1.37;;;1.23;;
2956;SDS011;1488;51.548;7.222;2023-05-24T10:53:09;1.93;;;1.50;;
2956;SDS011;1488;51.548;7.222;2023-05-24T10:55:49;1.33;;;1.13;;
2956;SDS011;1488;51.548;7.222;2023-05-24T10:58:17;1.40;;;1.30;;
2956;SDS011;1488;51.548;7.222;2023-05-24T11:00:44;1.30;;;1.00;;
2956;SDS011;1488;51.548;7.222;2023-05-24T11:03:14;1.90;;;1.20;;
2956;SDS011;1488;51.548;7.222;2023-05-24T11:05:48;1.50;;;1.20;;
2956;SDS011;1488;51.548;7.222;2023-05-24T11:08:20;1.40;;;1.20;;
2956;SDS011;1488;51.548;7.222;2023-05-24T11:10:49;1.50;;;1.17;;
2956;SDS011;1488;51.548;7.222;2023-05-24T11:13:17;1.47;;;1.10;;
2956;SDS011;1488;51.548;7.222;2023-05-24T11:15:49;1.90;;;1.00;;
2956;SDS011;1488;51.548;7.222;2023-05-24T11:18:20;2.43;;;1.17;;
2956;SDS011;1488;51.548;7.222;2023-05-24T11:20:48;1.83;;;1.20;;
2956;SDS011;1488;51.548;7.222;2023-05-24T11:23:15;2.13;;;1.23;;
2956;SDS011;1488;51.548;7.222;2023-05-24T11:25:43;1.30;;;0.93;;
2956;SDS011;1488;51.548;7.222;2023-05-24T11:28:11;2.37;;;1.10;;
2956;SDS011;1488;51.548;7.222;2023-05-24T11:30:38;1.30;;;1.20;;
2956;SDS011;1488;51.548;7.222;2023-05-24T11:33:12;3.00;;;1.40;;
2956;SDS011;1488;51.548;7.222;2023-05-24T11:35:41;1.30;;;1.00;;
2956;SDS011;1488;51.548;7.222;2023-05-24T11:38:08;1.40;;;1.10;;
2956;SDS011;1488;51.548;7.222;2023-05-24T11:40:37;1.80;;;1.07;;
2956;SDS011;1488;51.548;7.222;2023-05-24T11:43:08;1.30;;;1.10;;
2956;SDS011;1488;51.548;7.222;2023-05-24T11:45:40;1.50;;;1.30;;
2956;SDS011;1488;51.548;7.222;2023-05-24T11:48:07;1.30;;;1.10;;
2956;SDS011;1488;51.548;7.222;2023-05-24T11:50:38;1.40;;;1.30;;
2956;SDS011;1488;51.548;7.222;2023-05-24T11:53:09;1.50;;;1.10;;
2956;SDS011;1488;51.548;7.222;2023-05-24T11:55:36;1.43;;;1.07;;
2956;SDS011;1488;51.548;7.222;2023-05-24T11:58:05;1.37;;;1.17;;
2956;SDS011;1488;51.548;7.222;2023-05-24T12:00:35;1.40;;;1.30;;
2956;SDS011;1488;51.548;7.222;2023-05-24T12:03:03;1.70;;;1.43;;
2956;SDS011;1488;51.548;7.222;2023-05-24T12:05:32;1.20;;;0.90;;
2956;SDS011;1488;51.548;7.222;2023-05-24T12:08:01;1.40;;;1.10;;
2956;SDS011;1488;51.548;7.222;2023-05-24T12:10:31;1.37;;;1.13;;
2956;SDS011;1488;51.548;7.222;2023-05-24T12:12:59;1.40;;;1.03;;
2956;SDS011;1488;51.548;7.222;2023-05-24T12:15:26;1.60;;;1.10;;
2956;SDS011;1488;51.548;7.222;2023-05-24T12:17:53;2.10;;;1.20;;
2956;SDS011;1488;51.548;7.222;2023-05-24T12:20:19;1.33;;;1.00;;
2956;SDS011;1488;51.548;7.222;2023-05-24T12:22:47;1.53;;;1.10;;
2956;SDS011;1488;51.548;7.222;2023-05-24T12:25:15;1.20;;;1.00;;
2956;SDS011;1488;51.548;7.222;2023-05-24T12:27:46;1.20;;;0.97;;
2956;SDS011;1488;51.548;7.222;2023-05-24T12:30:20;9.30;;;1.97;;
2956;SDS011;1488;51.548;7.222;2023-05-24T12:32:48;3.00;;;1.80;;
2956;SDS011;1488;51.548;7.222;2023-05-24T12:35:16;4.13;;;1.63;;
2956;SDS011;1488;51.548;7.222;2023-05-24T12:37:43;3.60;;;1.60;;
2956;SDS011;1488;51.548;7.222;2023-05-24T12:40:14;1.90;;;1.10;;
2956;SDS011;1488;51.548;7.222;2023-05-24T12:42:44;2.47;;;1.50;;
2956;SDS011;1488;51.548;7.222;2023-05-24T12:48:38;3.90;;;1.20;;
2956;SDS011;1488;51.548;7.222;2023-05-24T12:51:05;4.53;;;1.63;;
2956;SDS011;1488;51.548;7.222;2023-05-24T12:53:33;2.33;;;1.30;;
2956;SDS011;1488;51.548;7.222;2023-05-24T12:56:00;6.30;;;1.20;;
2956;SDS011;1488;51.548;7.222;2023-05-24T12:58:27;1.80;;;1.10;;
2956;SDS011;1488;51.548;7.222;2023-05-24T13:00:54;3.47;;;1.23;;
2956;SDS011;1488;51.548;7.222;2023-05-24T13:03:21;2.73;;;1.43;;
2956;SDS011;1488;51.548;7.222;2023-05-24T13:05:49;2.83;;;1.43;;
2956;SDS011;1488;51.548;7.222;2023-05-24T13:08:16;1.90;;;1.40;;
2956;SDS011;1488;51.548;7.222;2023-05-24T13:10:43;6.37;;;2.63;;
2956;SDS011;1488;51.548;7.222;2023-05-24T13:13:09;6.80;;;2.30;;
2956;SDS011;1488;51.548;7.222;2023-05-24T13:15:37;8.03;;;2.30;;
2956;SDS011;1488;51.548;7.222;2023-05-24T13:18:05;3.60;;;1.50;;
2956;SDS011;1488;51.548;7.222;2023-05-24T13:20:32;5.43;;;1.93;;
2956;SDS011;1488;51.548;7.222;2023-05-24T13:23:00;4.23;;;2.23;;
2956;SDS011;1488;51.548;7.222;2023-05-24T13:25:27;2.10;;;1.50;;
2956;SDS011;1488;51.548;7.222;2023-05-24T13:27:54;5.03;;;1.87;;
2956;SDS011;1488;51.548;7.222;2023-05-24T13:30:21;1.50;;;1.40;;
2956;SDS011;1488;51.548;7.222;2023-05-24T13:32:52;3.33;;;1.70;;
2956;SDS011;1488;51.548;7.222;2023-05-24T13:35:19;5.80;;;2.13;;
2956;SDS011;1488;51.548;7.222;2023-05-24T13:37:46;10.73;;;2.30;;
2956;SDS011;1488;51.548;7.222;2023-05-24T13:40:14;3.60;;;1.90;;
2956;SDS011;1488;51.548;7.222;2023-05-24T13:42:41;5.03;;;1.63;;
2956;SDS011;1488;51.548;7.222;2023-05-24T13:45:08;2.70;;;2.50;;
2956;SDS011;1488;51.548;7.222;2023-05-24T13:47:36;4.10;;;2.03;;
2956;SDS011;1488;51.548;7.222;2023-05-24T13:50:04;5.27;;;2.10;;
2956;SDS011;1488;51.548;7.222;2023-05-24T13:52:31;2.80;;;1.60;;
2956;SDS011;1488;51.548;7.222;2023-05-24T13:54:58;2.87;;;1.90;;
2956;SDS011;1488;51.548;7.222;2023-05-24T13:57:28;4.97;;;2.67;;
2956;SDS011;1488;51.548;7.222;2023-05-24T13:59:54;4.13;;;1.93;;
2956;SDS011;1488;51.548;7.222;2023-05-24T14:02:21;5.33;;;1.87;;
2956;SDS011;1488;51.548;7.222;2023-05-24T14:04:48;6.87;;;2.17;;
2956;SDS011;1488;51.548;7.222;2023-05-24T14:07:16;3.33;;;1.90;;
2956;SDS011;1488;51.548;7.222;2023-05-24T14:09:43;5.27;;;2.27;;
2956;SDS011;1488;51.548;7.222;2023-05-24T14:12:10;4.90;;;1.70;;
2956;SDS011;1488;51.548;7.222;2023-05-24T14:14:39;4.60;;;2.20;;
2956;SDS011;1488;51.548;7.222;2023-05-24T14:17:06;4.20;;;2.13;;
2956;SDS011;1488;51.548;7.222;2023-05-24T14:19:33;4.23;;;2.00;;
2956;SDS011;1488;51.548;7.222;2023-05-24T14:22:00;6.73;;;2.57;;
2956;SDS011;1488;51.548;7.222;2023-05-24T14:24:27;2.93;;;1.77;;
2956;SDS011;1488;51.548;7.222;2023-05-24T14:26:53;6.23;;;2.00;;
2956;SDS011;1488;51.548;7.222;2023-05-24T14:29:20;5.40;;;1.97;;
2956;SDS011;1488;51.548;7.222;2023-05-24T14:31:48;3.13;;;1.80;;
2956;SDS011;1488;51.548;7.222;2023-05-24T14:34:15;4.50;;;2.07;;
2956;SDS011;1488;51.548;7.222;2023-05-24T14:36:42;6.83;;;2.30;;
2956;SDS011;1488;51.548;7.222;2023-05-24T14:39:09;6.83;;;2.40;;
2956;SDS011;1488;51.548;7.222;2023-05-24T14:41:36;12.20;;;2.70;;
2956;SDS011;1488;51.548;7.222;2023-05-24T14:44:03;5.33;;;1.63;;
2956;SDS011;1488;51.548;7.222;2023-05-24T14:46:29;4.53;;;2.07;;
2956;SDS011;1488;51.548;7.222;2023-05-24T14:48:57;5.10;;;2.00;;
2956;SDS011;1488;51.548;7.222;2023-05-24T14:51:26;6.30;;;2.87;;
2956;SDS011;1488;51.548;7.222;2023-05-24T14:53:53;10.87;;;2.17;;
2956;SDS011;1488;51.548;7.222;2023-05-24T14:56:20;3.87;;;1.70;;
2956;SDS011;1488;51.548;7.222;2023-05-24T14:58:47;3.67;;;1.70;;
2956;SDS011;1488;51.548;7.222;2023-05-24T15:01:13;3.60;;;1.87;;
2956;SDS011;1488;51.548;7.222;2023-05-24T15:03:40;5.10;;;2.10;;
2956;SDS011;1488;51.548;7.222;2023-05-24T15:06:08;6.40;;;1.70;;
2956;SDS011;1488;51.548;7.222;2023-05-24T15:08:35;6.00;;;1.90;;
2956;SDS011;1488;51.548;7.222;2023-05-24T15:11:02;2.70;;;1.47;;
2956;SDS011;1488;51.548;7.222;2023-05-24T15:13:30;6.80;;;2.70;;
2956;SDS011;1488;51.548;7.222;2023-05-24T15:15:57;2.43;;;1.60;;
2956;SDS011;1488;51.548;7.222;2023-05-24T15:18:24;5.40;;;1.90;;
2956;SDS011;1488;51.548;7.222;2023-05-24T15:20:52;3.13;;;1.90;;
2956;SDS011;1488;51.548;7.222;2023-05-24T15:23:20;7.43;;;2.20;;
2956;SDS011;1488;51.548;7.222;2023-05-24T15:25:47;2.27;;;1.53;;